createdAt,value
2022-12-09T00:01:50.535Z,-2.00
2022-12-09T00:04:18.944Z,-2.10
2022-12-09T00:06:48.633Z,-2.20
2022-12-09T00:09:17.529Z,-2.20
2022-12-09T00:11:45.819Z,-2.10
2022-12-09T00:14:14.054Z,-2.10
2022-12-09T00:16:42.244Z,-2.10
2022-12-09T00:19:10.551Z,-2.00
2022-12-09T00:21:38.610Z,-2.00
2022-12-09T00:24:10.884Z,-2.00
2022-12-09T00:26:39.532Z,-2.10
2022-12-09T00:29:08.210Z,-2.10
2022-12-09T00:31:38.724Z,-2.00
2022-12-09T00:34:09.042Z,-2.00
2022-12-09T00:36:37.290Z,-1.90
2022-12-09T00:39:07.157Z,-1.90
2022-12-09T00:41:35.291Z,-1.90
2022-12-09T00:44:03.413Z,-2.00
2022-12-09T00:46:31.608Z,-2.10
2022-12-09T00:48:59.726Z,-2.00
2022-12-09T00:51:28.499Z,-1.90
2022-12-09T00:53:57.098Z,-1.80
2022-12-09T00:56:28.937Z,-1.80
2022-12-09T00:58:58.027Z,-1.80
2022-12-09T01:01:26.675Z,-1.90
2022-12-09T01:03:55.235Z,-1.90
2022-12-09T01:06:25.702Z,-2.00
2022-12-09T01:08:54.235Z,-2.00
2022-12-09T01:11:25.312Z,-2.10
2022-12-09T01:13:57.736Z,-2.20
2022-12-09T01:16:28.330Z,-2.40
2022-12-09T01:18:59.515Z,-2.40
2022-12-09T01:21:28.169Z,-2.20
2022-12-09T01:23:56.510Z,-2.30
2022-12-09T01:26:25.731Z,-2.40
2022-12-09T01:28:57.527Z,-2.50
2022-12-09T01:31:27.260Z,-2.70
2022-12-09T01:33:56.870Z,-2.80
2022-12-09T01:36:27.033Z,-2.60
2022-12-09T01:38:55.668Z,-2.40
2022-12-09T01:41:24.099Z,-2.20
2022-12-09T01:44:13.125Z,-2.30
2022-12-09T01:46:41.939Z,-2.40
2022-12-09T01:49:14.563Z,-2.40
2022-12-09T01:51:45.161Z,-2.50
2022-12-09T01:54:13.374Z,-2.60
2022-12-09T01:56:42.222Z,-2.70
2022-12-09T01:59:13.533Z,-2.70
2022-12-09T02:01:42.530Z,-2.50
2022-12-09T02:04:10.832Z,-2.40
2022-12-09T02:06:39.846Z,-2.30
2022-12-09T02:09:08.888Z,-2.30
2022-12-09T02:11:48.241Z,-2.40
2022-12-09T02:14:22.459Z,-2.50
2022-12-09T02:16:58.549Z,-2.70
2022-12-09T02:19:41.906Z,-2.80
2022-12-09T02:22:13.815Z,-2.80
2022-12-09T02:24:48.038Z,-2.90
2022-12-09T02:27:19.537Z,-3.00
2022-12-09T02:30:04.375Z,-3.00
2022-12-09T02:33:10.027Z,-2.90
2022-12-09T02:35:43.963Z,-2.90
2022-12-09T02:38:16.237Z,-2.90
2022-12-09T02:40:51.679Z,-3.00
2022-12-09T02:43:23.497Z,-3.10
2022-12-09T02:45:52.901Z,-3.10
2022-12-09T02:48:25.222Z,-3.00
2022-12-09T02:50:56.760Z,-2.90
2022-12-09T02:53:27.165Z,-2.90
2022-12-09T02:55:57.084Z,-2.90
2022-12-09T02:58:25.319Z,-2.90
2022-12-09T03:00:56.798Z,-3.10
2022-12-09T03:03:26.331Z,-3.10
2022-12-09T03:06:02.301Z,-3.10
2022-12-09T03:08:38.056Z,-3.10
2022-12-09T03:11:08.963Z,-3.10
2022-12-09T03:13:45.140Z,-3.00
2022-12-09T03:16:19.507Z,-3.00
2022-12-09T03:18:51.734Z,-3.10
2022-12-09T03:21:23.602Z,-3.20
2022-12-09T03:23:54.240Z,-3.20
2022-12-09T03:26:25.249Z,-3.20
2022-12-09T03:28:54.190Z,-2.90
2022-12-09T03:31:25.724Z,-2.70
2022-12-09T03:33:57.767Z,-2.60
2022-12-09T03:36:29.289Z,-2.20
2022-12-09T03:38:58.990Z,-2.30
2022-12-09T03:41:30.658Z,-2.50
2022-12-09T03:44:04.661Z,-2.60
2022-12-09T03:46:33.122Z,-2.80
2022-12-09T03:49:01.768Z,-2.90
2022-12-09T03:51:35.802Z,-2.60
2022-12-09T03:54:11.136Z,-2.70
2022-12-09T03:56:42.999Z,-2.80
2022-12-09T03:59:13.176Z,-2.80
2022-12-09T04:01:43.617Z,-2.70
2022-12-09T04:04:12.973Z,-2.70
2022-12-09T04:06:42.993Z,-2.70
2022-12-09T04:09:13.193Z,-2.60
2022-12-09T04:11:41.305Z,-2.70
2022-12-09T04:14:15.310Z,-2.80
2022-12-09T04:16:44.467Z,-2.90
2022-12-09T04:19:13.141Z,-3.10
2022-12-09T04:21:42.613Z,-3.10
2022-12-09T04:24:11.519Z,-2.90
2022-12-09T04:26:39.668Z,-3.00
2022-12-09T04:29:07.799Z,-3.00
2022-12-09T04:31:36.050Z,-3.00
2022-12-09T04:34:09.225Z,-3.00
2022-12-09T04:36:38.736Z,-3.00
2022-12-09T04:39:08.967Z,-2.90
2022-12-09T04:41:37.682Z,-2.90
2022-12-09T04:44:06.479Z,-2.90
2022-12-09T04:46:35.034Z,-2.80
2022-12-09T04:49:03.258Z,-2.90
2022-12-09T04:51:37.483Z,-2.90
2022-12-09T04:54:13.230Z,-2.90
2022-12-09T04:56:41.778Z,-2.90
2022-12-09T04:59:10.417Z,-2.90
2022-12-09T05:01:38.646Z,-2.80
2022-12-09T05:04:07.263Z,-2.60
2022-12-09T05:06:35.874Z,-2.50
2022-12-09T05:09:04.436Z,-2.50
2022-12-09T05:11:34.099Z,-2.30
2022-12-09T05:14:02.999Z,-2.40
2022-12-09T05:16:31.101Z,-2.40
2022-12-09T05:19:00.653Z,-2.40
2022-12-09T05:21:28.819Z,-2.40
2022-12-09T05:23:57.533Z,-2.40
2022-12-09T05:26:25.736Z,-2.40
2022-12-09T05:28:55.484Z,-2.50
2022-12-09T05:31:24.765Z,-2.50
2022-12-09T05:33:54.087Z,-2.50
2022-12-09T05:36:25.197Z,-2.50
2022-12-09T05:38:54.073Z,-2.50
2022-12-09T05:41:22.920Z,-2.50
2022-12-09T05:43:52.077Z,-2.50
2022-12-09T05:46:22.598Z,-2.50
2022-12-09T05:48:51.053Z,-2.50
2022-12-09T05:51:25.459Z,-2.50
2022-12-09T05:53:54.773Z,-2.50
2022-12-09T05:56:25.336Z,-2.50
2022-12-09T05:58:54.766Z,-2.60
2022-12-09T06:01:25.845Z,-2.50
2022-12-09T06:03:55.925Z,-2.40
2022-12-09T06:06:28.117Z,-2.40
2022-12-09T06:08:58.950Z,-2.40
2022-12-09T06:11:29.100Z,-2.40
2022-12-09T06:13:57.689Z,-2.20
2022-12-09T06:16:27.517Z,-2.10
2022-12-09T06:18:56.393Z,-2.00
2022-12-09T06:21:25.240Z,-2.00
2022-12-09T06:23:53.648Z,-2.00
2022-12-09T06:26:24.592Z,-2.00
2022-12-09T06:28:53.752Z,-1.90
2022-12-09T06:31:23.136Z,-1.90
2022-12-09T06:33:55.335Z,-2.00
2022-12-09T06:36:25.027Z,-1.90
2022-12-09T06:38:53.499Z,-1.80
2022-12-09T06:41:21.952Z,-1.80
2022-12-09T06:43:50.327Z,-1.80
2022-12-09T06:46:20.726Z,-1.70
2022-12-09T06:48:49.718Z,-1.70
2022-12-09T06:51:19.775Z,-1.60
2022-12-09T06:53:48.325Z,-1.60
2022-12-09T06:56:16.953Z,-1.70
2022-12-09T06:58:46.736Z,-1.80
2022-12-09T07:01:18.418Z,-1.80
2022-12-09T07:03:48.434Z,-1.80
2022-12-09T07:06:24.650Z,-1.80
2022-12-09T07:08:53.425Z,-1.80
2022-12-09T07:11:21.817Z,-1.80
2022-12-09T07:13:50.926Z,-1.70
2022-12-09T07:16:19.513Z,-1.60
2022-12-09T07:18:47.779Z,-1.50
2022-12-09T07:21:18.033Z,-1.50
2022-12-09T07:23:48.517Z,-1.40
2022-12-09T07:26:17.083Z,-1.20
2022-12-09T07:28:47.326Z,-1.00
2022-12-09T07:31:20.746Z,-0.90
2022-12-09T07:33:50.240Z,-0.90
2022-12-09T07:36:21.241Z,-0.80
2022-12-09T07:38:55.858Z,-0.80
2022-12-09T07:41:24.341Z,-0.70
2022-12-09T07:43:52.982Z,-0.60
2022-12-09T07:46:23.400Z,-0.60
2022-12-09T07:48:52.027Z,-0.50
2022-12-09T07:51:20.440Z,-0.50
2022-12-09T07:53:50.357Z,-0.40
2022-12-09T07:56:19.753Z,-0.30
2022-12-09T07:58:51.321Z,-0.20
2022-12-09T08:01:21.047Z,-0.10
2022-12-09T08:03:50.758Z,0.00
2022-12-09T08:06:21.537Z,0.10
2022-12-09T08:08:51.988Z,0.20
2022-12-09T08:11:22.333Z,0.30
2022-12-09T08:13:51.048Z,0.40
2022-12-09T08:16:21.549Z,0.60
2022-12-09T08:18:50.687Z,0.70
2022-12-09T08:21:21.231Z,0.70
2022-12-09T08:23:51.613Z,0.70
2022-12-09T08:26:22.333Z,0.90
2022-12-09T08:28:51.700Z,1.10
2022-12-09T08:31:21.858Z,1.20
2022-12-09T08:33:51.395Z,1.30
2022-12-09T08:36:21.722Z,1.30
2022-12-09T08:38:51.682Z,1.30
2022-12-09T08:41:22.202Z,1.20
2022-12-09T08:43:50.675Z,1.20
2022-12-09T08:46:18.986Z,1.40
2022-12-09T08:48:48.107Z,1.30
2022-12-09T08:51:16.504Z,1.50
2022-12-09T08:53:44.981Z,1.60
2022-12-09T08:56:16.836Z,1.70
2022-12-09T08:58:45.371Z,1.70
2022-12-09T09:01:17.276Z,1.70
2022-12-09T09:03:46.864Z,1.50
2022-12-09T09:06:16.321Z,1.30
2022-12-09T09:08:45.302Z,1.30
2022-12-09T09:11:17.759Z,1.20
2022-12-09T09:13:47.966Z,1.00
2022-12-09T09:16:18.506Z,0.80
2022-12-09T09:18:47.446Z,0.80
2022-12-09T09:21:17.622Z,0.90
2022-12-09T09:23:46.153Z,0.80
2022-12-09T09:26:20.208Z,0.80
2022-12-09T09:28:48.732Z,0.90
2022-12-09T09:31:19.452Z,1.00
2022-12-09T09:33:48.911Z,1.00
2022-12-09T09:36:20.779Z,0.90
2022-12-09T09:38:50.052Z,0.80
2022-12-09T09:41:28.584Z,0.90
2022-12-09T09:43:57.544Z,1.10
2022-12-09T09:46:35.236Z,1.10
2022-12-09T09:49:05.083Z,1.20
2022-12-09T09:51:36.574Z,1.40
2022-12-09T09:54:08.645Z,1.30
2022-12-09T09:56:43.851Z,1.20
2022-12-09T09:59:24.529Z,1.20
2022-12-09T10:02:00.351Z,1.30
2022-12-09T10:04:37.759Z,1.40
2022-12-09T10:07:15.583Z,1.60
2022-12-09T10:09:55.747Z,1.70
2022-12-09T10:12:33.216Z,1.60
2022-12-09T10:15:10.606Z,1.80
2022-12-09T10:17:47.800Z,1.70
2022-12-09T10:20:18.982Z,1.70
2022-12-09T10:22:51.609Z,1.70
2022-12-09T10:25:23.970Z,1.80
2022-12-09T10:27:56.800Z,1.80
2022-12-09T10:30:29.972Z,2.00
2022-12-09T10:33:01.580Z,1.90
2022-12-09T10:35:32.917Z,1.80
2022-12-09T10:38:08.968Z,1.70
2022-12-09T10:40:48.140Z,1.90
2022-12-09T10:43:38.868Z,1.90
2022-12-09T10:46:19.969Z,1.90
2022-12-09T10:48:56.273Z,2.00
2022-12-09T10:51:27.901Z,2.10
2022-12-09T10:53:59.232Z,2.10
2022-12-09T10:56:30.064Z,2.00
2022-12-09T10:59:16.076Z,1.80
2022-12-09T11:01:52.738Z,1.70
2022-12-09T11:04:26.367Z,1.80
2022-12-09T11:06:59.697Z,1.80
2022-12-09T11:09:32.089Z,1.90
2022-12-09T11:12:02.002Z,2.00
2022-12-09T11:14:36.092Z,2.10
2022-12-09T11:17:15.603Z,1.90
2022-12-09T11:19:46.247Z,1.90
2022-12-09T11:22:23.911Z,1.90
2022-12-09T11:24:56.710Z,2.00
2022-12-09T11:27:29.662Z,1.90
2022-12-09T11:30:14.489Z,2.00
2022-12-09T11:33:03.349Z,2.10
2022-12-09T11:35:37.391Z,2.10
2022-12-09T11:38:17.195Z,2.20
2022-12-09T11:41:00.943Z,2.60
2022-12-09T11:43:40.774Z,2.60
2022-12-09T11:46:24.248Z,2.90
2022-12-09T11:48:58.297Z,3.00
2022-12-09T11:51:29.776Z,3.20
2022-12-09T11:54:03.682Z,2.80
2022-12-09T11:56:33.669Z,2.80
2022-12-09T11:59:04.882Z,2.90
2022-12-09T12:01:51.956Z,3.00
2022-12-09T12:04:27.612Z,2.80
2022-12-09T12:07:02.341Z,2.50
2022-12-09T12:09:36.851Z,2.60
2022-12-09T12:12:17.391Z,2.60
2022-12-09T12:14:45.673Z,2.50
2022-12-09T12:17:19.992Z,2.40
2022-12-09T12:19:51.446Z,2.40
2022-12-09T12:22:54.889Z,2.40
2022-12-09T12:25:41.688Z,2.50
2022-12-09T12:28:24.625Z,2.50
2022-12-09T12:31:01.567Z,2.50
2022-12-09T12:36:48.755Z,2.30
2022-12-09T12:39:28.952Z,2.30
2022-12-09T12:42:02.609Z,2.20
2022-12-09T12:44:58.210Z,2.10
2022-12-09T12:47:34.904Z,2.10
2022-12-09T12:50:24.290Z,2.30
2022-12-09T12:53:01.868Z,2.20
2022-12-09T12:55:48.909Z,2.30
2022-12-09T12:58:29.908Z,2.20
2022-12-09T13:01:05.491Z,2.40
2022-12-09T13:03:42.239Z,2.40
2022-12-09T13:06:17.028Z,2.30
2022-12-09T13:08:49.718Z,2.30
2022-12-09T13:11:21.538Z,2.30
2022-12-09T13:13:55.045Z,2.40
2022-12-09T13:16:28.714Z,2.50
2022-12-09T13:19:05.907Z,2.30
2022-12-09T13:21:35.955Z,2.30
2022-12-09T13:24:18.028Z,2.20
2022-12-09T13:26:50.632Z,2.20
2022-12-09T13:29:31.173Z,2.20
2022-12-09T13:32:09.116Z,2.30
2022-12-09T13:34:40.348Z,2.20
2022-12-09T13:37:33.069Z,2.10
2022-12-09T13:40:02.195Z,2.20
2022-12-09T13:42:56.577Z,2.20
2022-12-09T13:45:35.393Z,2.20
2022-12-09T13:48:11.949Z,2.20
2022-12-09T13:50:45.446Z,2.20
2022-12-09T13:53:27.343Z,2.10
2022-12-09T13:55:57.259Z,2.20
2022-12-09T13:58:49.973Z,2.20
2022-12-09T14:01:23.698Z,2.10
2022-12-09T14:04:02.797Z,2.10
2022-12-09T14:06:33.883Z,2.00
2022-12-09T14:09:07.780Z,2.10
2022-12-09T14:11:47.115Z,2.00
2022-12-09T14:14:49.064Z,2.00
2022-12-09T14:18:02.194Z,1.80
2022-12-09T14:20:35.284Z,1.90
2022-12-09T14:23:18.966Z,1.80
2022-12-09T14:26:09.594Z,1.80
2022-12-09T14:28:55.457Z,1.70
2022-12-09T14:31:47.589Z,1.70
2022-12-09T14:34:26.957Z,1.80
2022-12-09T14:37:04.964Z,1.70
2022-12-09T14:39:38.719Z,1.70
2022-12-09T14:42:14.141Z,1.60
2022-12-09T14:44:49.183Z,1.70
2022-12-09T14:47:22.031Z,1.70
2022-12-09T14:49:50.948Z,1.60
2022-12-09T14:52:24.463Z,1.60
2022-12-09T14:54:57.624Z,1.50
2022-12-09T14:57:35.073Z,1.50
2022-12-09T15:00:05.969Z,1.40
2022-12-09T15:02:34.701Z,1.40
2022-12-09T15:05:04.113Z,1.50
2022-12-09T15:07:34.072Z,1.60
2022-12-09T15:10:05.195Z,1.50
2022-12-09T15:12:38.130Z,1.50
2022-12-09T15:15:14.353Z,1.40
2022-12-09T15:17:45.363Z,1.40
2022-12-09T15:20:27.342Z,1.40
2022-12-09T15:23:15.450Z,1.50
2022-12-09T15:25:48.174Z,1.50
2022-12-09T15:28:26.109Z,1.50
2022-12-09T15:30:57.893Z,1.50
2022-12-09T15:33:26.494Z,1.60
2022-12-09T15:35:58.387Z,1.60
2022-12-09T15:38:29.707Z,1.50
2022-12-09T15:41:18.515Z,1.50
2022-12-09T15:43:53.585Z,1.50
2022-12-09T15:46:27.509Z,1.50
2022-12-09T15:49:03.110Z,1.50
2022-12-09T15:51:50.924Z,1.50
2022-12-09T15:54:25.630Z,1.40
2022-12-09T15:56:57.641Z,1.40
2022-12-09T15:59:34.080Z,1.40
2022-12-09T16:02:05.689Z,1.40
2022-12-09T16:04:38.042Z,1.40
2022-12-09T16:07:12.970Z,1.40
2022-12-09T16:09:41.478Z,1.40
2022-12-09T16:12:25.329Z,1.40
2022-12-09T16:14:55.287Z,1.40
2022-12-09T16:17:25.999Z,1.40
2022-12-09T16:19:54.806Z,1.50
2022-12-09T16:22:28.376Z,1.50
2022-12-09T16:25:18.088Z,1.50
2022-12-09T16:27:59.388Z,1.50
2022-12-09T16:30:32.387Z,1.50
2022-12-09T16:33:02.259Z,1.50
2022-12-09T16:35:38.919Z,1.50
2022-12-09T16:38:22.176Z,1.50
2022-12-09T16:41:11.118Z,1.50
2022-12-09T16:43:55.145Z,1.50
2022-12-09T16:46:44.620Z,1.60
2022-12-09T16:49:12.824Z,1.60
2022-12-09T16:51:41.486Z,1.70
2022-12-09T16:54:20.506Z,1.70
2022-12-09T16:56:54.839Z,1.70
2022-12-09T16:59:23.074Z,1.70
2022-12-09T17:01:55.564Z,1.70
2022-12-09T17:04:27.036Z,1.70
2022-12-09T17:06:56.217Z,1.70
2022-12-09T17:09:24.303Z,1.70
2022-12-09T17:11:52.464Z,1.80
2022-12-09T17:14:22.540Z,1.80
2022-12-09T17:16:52.472Z,1.80
2022-12-09T17:19:22.234Z,1.90
2022-12-09T17:21:53.101Z,1.80
2022-12-09T17:24:21.884Z,1.80
2022-12-09T17:26:53.348Z,1.80
2022-12-09T17:29:21.442Z,1.80
2022-12-09T17:31:51.875Z,1.80
2022-12-09T17:34:24.910Z,1.80
2022-12-09T17:36:57.354Z,1.80
2022-12-09T17:39:29.672Z,1.80
2022-12-09T17:41:57.764Z,1.80
2022-12-09T17:44:29.398Z,1.80
2022-12-09T17:46:57.678Z,1.80
2022-12-09T17:49:27.468Z,1.80
2022-12-09T17:51:55.663Z,1.80
2022-12-09T17:54:24.428Z,1.80
2022-12-09T17:56:52.520Z,1.80
2022-12-09T17:59:20.557Z,1.80
2022-12-09T18:01:54.110Z,1.80
2022-12-09T18:04:32.088Z,1.80
2022-12-09T18:07:00.161Z,1.80
2022-12-09T18:09:28.358Z,1.90
2022-12-09T18:11:56.479Z,1.90
2022-12-09T18:14:25.506Z,1.90
2022-12-09T18:16:53.620Z,1.90
2022-12-09T18:19:23.427Z,1.90
2022-12-09T18:21:55.494Z,1.80
2022-12-09T18:24:23.827Z,1.80
2022-12-09T18:26:51.882Z,1.80
2022-12-09T18:29:21.173Z,1.90
2022-12-09T18:31:54.217Z,2.00
2022-12-09T18:34:22.618Z,2.00
2022-12-09T18:36:53.470Z,1.90
2022-12-09T18:39:22.423Z,2.00
2022-12-09T18:41:50.613Z,2.00
2022-12-09T18:44:19.076Z,1.90
2022-12-09T18:46:50.483Z,1.90
2022-12-09T18:49:20.604Z,2.00
2022-12-09T18:51:50.001Z,2.00
2022-12-09T18:54:22.760Z,2.00
2022-12-09T18:56:50.873Z,2.00
2022-12-09T18:59:19.471Z,2.00
2022-12-09T19:01:49.029Z,2.00
2022-12-09T19:04:19.751Z,2.00
2022-12-09T19:06:52.249Z,1.90
2022-12-09T19:09:23.092Z,1.90
2022-12-09T19:11:52.516Z,2.00
2022-12-09T19:14:22.642Z,2.00
2022-12-09T19:16:51.667Z,2.00
2022-12-09T19:19:21.893Z,1.90
2022-12-09T19:21:50.713Z,2.00
2022-12-09T19:24:22.322Z,1.90
2022-12-09T19:26:53.151Z,1.90
2022-12-09T19:29:24.624Z,1.90
2022-12-09T19:31:53.941Z,1.90
2022-12-09T19:34:24.598Z,1.90
2022-12-09T19:36:54.524Z,1.90
2022-12-09T19:39:26.991Z,1.80
2022-12-09T19:41:55.139Z,1.90
2022-12-09T19:44:44.193Z,1.80
2022-12-09T19:47:11.684Z,1.80
2022-12-09T19:49:41.395Z,1.80
2022-12-09T19:52:09.725Z,1.90
2022-12-09T19:54:39.530Z,1.90
2022-12-09T19:57:07.825Z,1.90
2022-12-09T19:59:37.667Z,1.90
2022-12-09T20:02:07.298Z,1.90
2022-12-09T20:04:51.443Z,1.90
2022-12-09T20:07:19.750Z,2.00
2022-12-09T20:09:49.373Z,2.00
2022-12-09T20:12:17.478Z,2.10
2022-12-09T20:14:45.589Z,2.10
2022-12-09T20:17:13.655Z,2.10
2022-12-09T20:19:41.681Z,2.10
2022-12-09T20:22:09.673Z,2.10
2022-12-09T20:24:37.770Z,2.10
2022-12-09T20:27:07.165Z,2.20
2022-12-09T20:29:37.825Z,2.20
2022-12-09T20:32:07.291Z,2.10
2022-12-09T20:34:36.032Z,2.10
2022-12-09T20:37:04.226Z,2.10
2022-12-09T20:39:32.347Z,2.10
2022-12-09T20:42:00.454Z,2.10
2022-12-09T20:44:30.038Z,2.10
2022-12-09T20:46:58.051Z,2.10
2022-12-09T20:49:27.658Z,2.10
2022-12-09T20:51:56.176Z,2.10
2022-12-09T20:54:24.755Z,2.10
2022-12-09T20:56:54.600Z,2.10
2022-12-09T20:59:23.059Z,2.10
2022-12-09T21:01:54.136Z,2.10
2022-12-09T21:04:22.553Z,2.10
2022-12-09T21:06:50.754Z,2.10
2022-12-09T21:09:22.190Z,2.10
2022-12-09T21:11:51.234Z,2.10
2022-12-09T21:14:19.820Z,2.10
2022-12-09T21:16:50.376Z,2.10
2022-12-09T21:19:24.654Z,2.10
2022-12-09T21:21:54.355Z,2.20
2022-12-09T21:24:24.241Z,2.20
2022-12-09T21:26:55.336Z,2.10
2022-12-09T21:29:29.926Z,2.10
2022-12-09T21:31:59.821Z,2.10
2022-12-09T21:34:29.301Z,2.10
2022-12-09T21:36:57.382Z,2.10
2022-12-09T21:39:25.442Z,2.10
2022-12-09T21:41:53.546Z,2.20
2022-12-09T21:44:22.445Z,2.20
2022-12-09T21:46:50.522Z,2.20
2022-12-09T21:49:18.595Z,2.10
2022-12-09T21:51:48.038Z,2.10
2022-12-09T21:54:16.151Z,2.10
2022-12-09T21:56:44.742Z,2.10
2022-12-09T21:59:12.883Z,2.10
2022-12-09T22:01:42.571Z,2.10
2022-12-09T22:04:13.126Z,2.10
2022-12-09T22:06:41.432Z,2.00
2022-12-09T22:09:12.654Z,2.00
2022-12-09T22:11:41.380Z,2.00
2022-12-09T22:14:11.309Z,2.00
2022-12-09T22:16:41.664Z,2.00
2022-12-09T22:19:13.754Z,2.00
2022-12-09T22:21:42.108Z,2.00
2022-12-09T22:24:12.886Z,2.00
2022-12-09T22:26:43.411Z,1.90
2022-12-09T22:29:13.208Z,1.90
2022-12-09T22:31:41.605Z,1.90
2022-12-09T22:34:13.091Z,1.80
2022-12-09T22:36:42.058Z,1.80
2022-12-09T22:39:14.096Z,1.80
2022-12-09T22:41:43.606Z,1.80
2022-12-09T22:44:13.264Z,1.90
2022-12-09T22:46:42.210Z,1.90
2022-12-09T22:49:13.156Z,1.90
2022-12-09T22:51:41.920Z,1.90
2022-12-09T22:54:11.725Z,2.00
2022-12-09T22:56:42.072Z,2.00
2022-12-09T22:59:10.405Z,1.90
2022-12-09T23:01:38.823Z,1.90
2022-12-09T23:04:08.931Z,1.80
2022-12-09T23:06:38.856Z,1.80
2022-12-09T23:09:07.757Z,1.80
2022-12-09T23:11:38.019Z,1.80
2022-12-09T23:14:06.504Z,1.80
2022-12-09T23:16:34.642Z,1.80
2022-12-09T23:19:02.974Z,1.80
2022-12-09T23:21:33.485Z,1.90
2022-12-09T23:24:03.339Z,1.80
2022-12-09T23:26:33.488Z,1.80
2022-12-09T23:29:04.026Z,1.80
2022-12-09T23:31:36.290Z,1.70
2022-12-09T23:34:05.624Z,1.70
2022-12-09T23:36:36.693Z,1.70
2022-12-09T23:39:09.373Z,1.80
2022-12-09T23:41:37.687Z,1.70
2022-12-09T23:44:10.954Z,1.80
2022-12-09T23:46:40.061Z,1.70
2022-12-09T23:49:08.557Z,1.70
2022-12-09T23:51:40.495Z,1.80
2022-12-09T23:54:10.901Z,1.80
2022-12-09T23:56:43.924Z,1.70
2022-12-09T23:59:14.657Z,1.70
